Time;durP1;ratioP1;P1;durP2;ratioP2;P2;SDS_P1;SDS_P2;PMS_P1;PMS_P2;Temp;Humidity;BMP_temperature;BMP_pressure;BME280_temperature;BME280_humidity;BME280_pressure;Samples;Min_cycle;Max_cycle;Signal;HPM_P1;HPM_P2
2022/10/28 00:03:51;;;;;;;14.15;6.07;;;;;;;14.88;100.00;100411.94;12236489;19;20006;-79
2022/10/28 00:07:53;;;;;;;13.70;6.13;;;;;;;14.86;100.00;100416.91;12217435;19;20043;-79
2022/10/28 00:11:55;;;;;;;21.60;10.45;;;;;;;14.83;100.00;100422.97;12231361;19;20014;-80
2022/10/28 00:16:09;;;;;;;20.17;6.83;;;;;;;14.84;100.00;100421.88;12214428;19;20014;-80
2022/10/28 00:20:11;;;;;;;16.98;6.57;;;;;;;14.85;100.00;100415.25;12189267;19;20011;-80
2022/10/28 00:24:13;;;;;;;18.75;6.90;;;;;;;14.87;100.00;100412.19;12207558;19;20015;-80
2022/10/28 00:28:14;;;;;;;15.05;7.50;;;;;;;14.85;100.00;100417.19;12185332;19;20007;-80
2022/10/28 00:32:16;;;;;;;16.90;7.47;;;;;;;14.85;100.00;100423.56;12201450;19;20015;-80
2022/10/28 00:36:23;;;;;;;17.70;7.00;;;;;;;14.93;100.00;100430.56;12206781;19;20011;-80
2022/10/28 00:40:25;;;;;;;15.45;6.90;;;;;;;14.96;100.00;100438.34;12181707;19;20698;-81
2022/10/28 00:44:48;;;;;;;18.08;6.78;;;;;;;15.01;100.00;100432.84;12206078;19;20010;-80
2022/10/28 00:48:58;;;;;;;15.65;7.82;;;;;;;15.09;100.00;100437.09;12213847;19;20464;-81
2022/10/28 00:53:05;;;;;;;15.75;6.78;;;;;;;15.17;100.00;100426.34;12197778;19;20011;-80
2022/10/28 00:57:12;;;;;;;21.42;7.85;;;;;;;15.23;100.00;100424.44;12218949;19;20015;-80
2022/10/28 01:01:14;;;;;;;15.68;8.13;;;;;;;15.30;100.00;100432.53;12196644;19;20002;-80
2022/10/28 01:05:21;;;;;;;20.70;8.13;;;;;;;15.35;100.00;100413.13;12209438;19;20014;-81
2022/10/28 01:09:22;;;;;;;14.20;7.10;;;;;;;15.37;100.00;100397.88;12217826;19;20018;-80
2022/10/28 01:13:56;;;;;;;15.30;7.88;;;;;;;15.42;100.00;100400.69;12195103;19;20007;-80
2022/10/28 01:18:06;;;;;;;22.55;7.30;;;;;;;15.45;100.00;100389.03;12218261;19;20087;-80
2022/10/28 01:22:22;;;;;;;14.10;7.15;;;;;;;15.45;100.00;100394.59;12195990;19;20018;-80
2022/10/28 01:26:43;;;;;;;17.58;7.43;;;;;;;15.37;100.00;100425.63;12216288;19;20654;-79
2022/10/28 01:31:10;;;;;;;15.05;7.75;;;;;;;15.35;100.00;100418.69;12216412;19;20010;-79
2022/10/28 01:35:56;;;;;;;25.17;7.18;;;;;;;15.44;100.00;100420.72;12194900;19;20456;-79
2022/10/28 01:40:07;;;;;;;16.30;7.43;;;;;;;15.44;100.00;100409.59;12216718;19;20018;-80
2022/10/28 01:44:59;;;;;;;19.20;8.07;;;;;;;15.45;100.00;100416.00;12195948;19;20133;-80
2022/10/28 01:49:20;;;;;;;15.55;7.68;;;;;;;15.44;100.00;100412.38;12206168;19;20010;-79
2022/10/28 01:53:25;;;;;;;14.00;7.47;;;;;;;15.46;100.00;100387.09;12215027;19;20030;-79
2022/10/28 01:57:30;;;;;;;19.50;7.55;;;;;;;15.46;100.00;100410.16;12214342;19;20990;-80
2022/10/28 02:01:33;;;;;;;22.63;7.82;;;;;;;15.41;100.00;100417.63;12192915;19;20017;-80
2022/10/28 02:05:40;;;;;;;;;;;;;;;15.36;100.00;100412.88;12216744;19;20010;-80
2022/10/28 02:09:42;;;;;;;15.65;7.60;;;;;;;15.36;100.00;100393.44;12214853;19;19938;-79
2022/10/28 02:14:11;;;;;;;16.33;6.68;;;;;;;15.35;100.00;100396.47;12190080;19;19999;-79
2022/10/28 02:18:38;;;;;;;14.68;7.10;;;;;;;15.31;100.00;100392.56;12214197;19;20464;-80
2022/10/28 02:23:07;;;;;;;18.48;7.95;;;;;;;15.27;100.00;100395.88;12192014;19;20011;-80
2022/10/28 02:27:20;;;;;;;20.08;8.18;;;;;;;15.23;100.00;100385.59;12212781;19;20014;-80
2022/10/28 02:31:28;;;;;;;19.80;7.88;;;;;;;15.26;100.00;100385.03;12191058;19;20445;-80
2022/10/28 02:35:39;;;;;;;23.08;8.93;;;;;;;15.31;100.00;100381.44;12212075;19;20440;-81
2022/10/28 02:39:45;;;;;;;29.30;8.93;;;;;;;15.34;100.00;100381.75;12216493;19;20476;-80
2022/10/28 02:43:52;;;;;;;17.23;9.82;;;;;;;15.35;100.00;100371.47;12189994;19;20011;-80
2022/10/28 02:47:59;;;;;;;19.25;8.73;;;;;;;15.35;100.00;100369.56;12210888;19;20029;-80
2022/10/28 02:52:04;;;;;;;19.30;8.95;;;;;;;15.37;100.00;100380.38;12212761;19;20022;-80
2022/10/28 02:56:08;;;;;;;13.52;8.40;;;;;;;15.37;100.00;100369.28;12190702;19;20017;-79
2022/10/28 03:00:15;;;;;;;19.00;8.80;;;;;;;15.38;100.00;100362.63;12212441;19;20686;-80
2022/10/28 03:04:17;;;;;;;23.88;10.00;;;;;;;15.38;100.00;100348.75;12189507;19;20345;-80
2022/10/28 03:08:18;;;;;;;19.80;8.73;;;;;;;15.38;100.00;100338.47;12209046;19;20026;-81
2022/10/28 03:12:20;;;;;;;20.58;8.68;;;;;;;15.37;100.00;100328.44;12206401;19;20014;-80
2022/10/28 03:16:22;;;;;;;18.33;8.18;;;;;;;15.38;100.00;100323.75;12189131;19;19999;-80
2022/10/28 03:20:23;;;;;;;16.42;7.65;;;;;;;15.40;100.00;100329.84;12208923;19;20090;-80
2022/10/28 03:24:25;;;;;;;15.67;8.90;;;;;;;15.40;100.00;100325.13;12204513;19;20033;-80
2022/10/28 03:28:27;;;;;;;16.17;8.00;;;;;;;15.42;100.00;100319.31;12192969;19;20014;-80
2022/10/28 03:32:28;;;;;;;16.20;7.63;;;;;;;15.41;100.00;100321.28;12213850;19;20026;-79
2022/10/28 03:36:30;;;;;;;13.27;7.03;;;;;;;15.45;100.00;100314.06;12212153;19;20467;-80
2022/10/28 03:40:33;;;;;;;19.45;6.90;;;;;;;15.50;100.00;100304.94;12187591;19;20014;-80
2022/10/28 03:44:34;;;;;;;14.85;7.28;;;;;;;15.52;100.00;100299.91;12211882;19;20019;-79
2022/10/28 03:48:36;;;;;;;14.23;6.63;;;;;;;15.54;100.00;100308.00;12210428;19;20006;-80
2022/10/28 03:52:38;;;;;;;17.58;7.10;;;;;;;15.58;100.00;100309.13;12186862;19;20468;-80
2022/10/28 03:56:39;;;;;;;12.98;6.07;;;;;;;15.60;100.00;100312.47;12207639;19;20611;-80
2022/10/28 04:00:41;;;;;;;18.83;6.78;;;;;;;15.61;100.00;100319.69;12209671;19;20068;-79
2022/10/28 04:04:43;;;;;;;12.60;6.20;;;;;;;15.59;100.00;100333.84;12187036;19;20011;-80
2022/10/28 04:08:44;;;;;;;16.10;6.25;;;;;;;15.50;100.00;100346.59;12208692;19;20015;-80
2022/10/28 04:12:46;;;;;;;16.30;7.28;;;;;;;15.39;100.00;100355.97;12207688;19;20035;-80
2022/10/28 04:16:47;;;;;;;17.63;7.60;;;;;;;15.33;100.00;100362.59;12186389;19;20812;-79
2022/10/28 04:20:49;;;;;;;11.70;6.63;;;;;;;15.32;100.00;100352.56;12205020;19;20006;-80
2022/10/28 04:24:53;;;;;;;17.42;7.90;;;;;;;15.27;100.00;100350.63;12264850;19;20018;-79
2022/10/28 04:28:55;;;;;;;15.40;8.48;;;;;;;15.26;100.00;100358.13;12229944;19;20019;-81
2022/10/28 04:32:56;;;;;;;21.25;8.18;;;;;;;15.25;100.00;100347.25;12214954;19;20018;-79
2022/10/28 04:36:58;;;;;;;20.92;8.32;;;;;;;15.28;100.00;100343.94;12215624;19;20658;-81
2022/10/28 04:40:59;;;;;;;14.68;7.47;;;;;;;15.30;100.00;100338.13;12193933;19;20390;-81
2022/10/28 04:45:01;;;;;;;16.02;7.47;;;;;;;15.32;100.00;100334.00;12211317;19;20011;-80
2022/10/28 04:49:03;;;;;;;12.40;7.28;;;;;;;15.26;100.00;100335.91;12207907;19;20400;-81
2022/10/28 04:53:04;;;;;;;14.90;7.45;;;;;;;15.25;100.00;100334.22;12211513;19;20006;-81
2022/10/28 04:57:06;;;;;;;15.45;8.23;;;;;;;15.21;100.00;100337.81;12209962;19;20010;-81
2022/10/28 05:01:09;;;;;;;18.75;7.90;;;;;;;15.12;100.00;100331.09;12188164;19;20010;-81
2022/10/28 05:05:10;;;;;;;;;;;;;;;15.04;100.00;100337.97;12209284;19;20010;-81
2022/10/28 05:09:12;;;;;;;14.48;6.68;;;;;;;15.01;100.00;100336.56;12210228;19;19914;-80
2022/10/28 05:13:14;;;;;;;16.85;6.28;;;;;;;14.98;100.00;100339.84;12186420;19;20578;-80
2022/10/28 05:17:15;;;;;;;22.65;7.43;;;;;;;15.00;100.00;100328.50;12205679;19;20046;-80
2022/10/28 05:21:17;;;;;;;14.75;6.88;;;;;;;15.06;100.00;100318.28;12207002;19;20013;-80
2022/10/28 05:25:19;;;;;;;16.42;6.80;;;;;;;15.09;100.00;100324.13;12184097;19;20618;-80
2022/10/28 05:29:22;;;;;;;15.27;6.70;;;;;;;15.06;100.00;100321.06;12202316;19;20034;-81
2022/10/28 05:33:24;;;;;;;12.70;6.60;;;;;;;15.06;100.00;100321.06;12207250;19;20500;-81
2022/10/28 05:37:26;;;;;;;20.77;6.37;;;;;;;15.08;100.00;100316.06;12194386;19;20015;-81
2022/10/28 05:41:28;;;;;;;17.15;6.80;;;;;;;15.00;100.00;100303.53;12217679;19;20240;-79
2022/10/28 05:45:29;;;;;;;13.75;6.40;;;;;;;14.93;100.00;100298.22;12217455;19;20007;-80
2022/10/28 05:49:32;;;;;;;15.85;6.70;;;;;;;14.93;100.00;100300.13;12195364;19;20002;-80
2022/10/28 05:53:35;;;;;;;14.43;7.15;;;;;;;14.95;100.00;100300.72;12246723;19;20090;-79
2022/10/28 05:57:38;;;;;;;15.75;6.93;;;;;;;14.99;100.00;100308.25;12215985;19;20014;-80
2022/10/28 06:01:40;;;;;;;14.10;7.50;;;;;;;15.01;100.00;100299.63;12194341;19;20021;-80
2022/10/28 06:05:43;;;;;;;17.85;8.43;;;;;;;15.04;100.00;100308.25;12217788;19;20602;-79
2022/10/28 06:09:45;;;;;;;16.65;7.57;;;;;;;15.07;100.00;100300.50;12214337;19;20014;-79
2022/10/28 06:13:47;;;;;;;16.83;7.27;;;;;;;15.10;100.00;100303.59;12187014;19;20038;-78
2022/10/28 06:17:49;;;;;;;16.00;6.97;;;;;;;15.16;100.00;100301.69;12212442;19;20035;-79
2022/10/28 06:21:50;;;;;;;15.60;7.10;;;;;;;15.22;100.00;100308.94;12214966;19;20011;-78
2022/10/28 06:25:59;;;;;;;17.42;7.00;;;;;;;15.29;100.00;100320.66;12187730;19;20007;-77
2022/10/28 06:30:01;;;;;;;17.10;6.68;;;;;;;15.35;100.00;100324.25;12205064;19;20437;-78
2022/10/28 06:34:04;;;;;;;21.10;7.03;;;;;;;15.43;100.00;100332.94;12201250;19;20011;-78
2022/10/28 06:38:06;;;;;;;13.98;6.93;;;;;;;15.55;100.00;100321.59;12202572;19;20546;-77
2022/10/28 06:42:11;;;;;;;10.90;5.57;;;;;;;15.68;100.00;100325.88;12217077;19;20491;-77
2022/10/28 06:46:13;;;;;;;15.87;6.63;;;;;;;15.79;100.00;100332.28;12192089;19;20011;-78
2022/10/28 06:50:15;;;;;;;12.10;5.32;;;;;;;15.87;100.00;100338.16;12212499;19;20082;-78
2022/10/28 06:54:17;;;;;;;10.80;5.88;;;;;;;15.94;100.00;100327.66;12216858;19;20030;-77
2022/10/28 06:58:19;;;;;;;12.25;5.75;;;;;;;16.02;100.00;100326.25;12199559;19;20015;-78
2022/10/28 07:02:20;;;;;;;14.03;6.30;;;;;;;16.08;100.00;100330.72;12217671;19;20018;-78
2022/10/28 07:06:24;;;;;;;12.93;5.38;;;;;;;16.18;100.00;100329.91;12216542;19;20011;-79
2022/10/28 07:10:26;;;;;;;15.18;6.15;;;;;;;16.29;100.00;100330.78;12193517;19;20127;-78
2022/10/28 07:14:27;;;;;;;13.10;5.97;;;;;;;16.43;100.00;100334.69;12216894;19;20023;-79
2022/10/28 07:18:29;;;;;;;15.23;5.60;;;;;;;16.57;100.00;100330.28;12219037;19;20010;-79
2022/10/28 07:22:31;;;;;;;11.27;5.80;;;;;;;16.70;100.00;100341.97;12218107;19;20007;-78
2022/10/28 07:26:34;;;;;;;10.90;5.13;;;;;;;16.82;100.00;100340.59;12265350;19;20007;-78
2022/10/28 07:30:36;;;;;;;17.20;4.70;;;;;;;16.94;100.00;100342.28;12264479;19;20014;-80
2022/10/28 07:34:38;;;;;;;11.27;5.35;;;;;;;16.95;100.00;100349.50;12239976;19;20002;-79
2022/10/28 07:38:40;;;;;;;14.85;5.10;;;;;;;16.89;100.00;100367.31;12261070;19;20046;-77
2022/10/28 07:42:41;;;;;;;11.88;4.68;;;;;;;16.87;100.00;100361.22;12262013;19;20005;-79
2022/10/28 07:46:43;;;;;;;11.77;5.80;;;;;;;16.95;100.00;100372.59;12233861;19;20440;-78
2022/10/28 07:50:44;;;;;;;11.30;4.93;;;;;;;17.02;100.00;100372.34;12233377;19;20017;-77
2022/10/28 07:54:46;;;;;;;13.63;5.45;;;;;;;17.12;100.00;100368.72;12229890;19;20007;-77
2022/10/28 07:58:48;;;;;;;17.38;5.28;;;;;;;17.26;100.00;100367.84;12191828;19;20006;-79
2022/10/28 08:02:50;;;;;;;11.48;5.75;;;;;;;17.29;100.00;100367.28;12213484;19;20014;-80
2022/10/28 08:06:52;;;;;;;18.58;6.78;;;;;;;17.35;100.00;100364.50;12213879;19;20030;-78
2022/10/28 08:10:54;;;;;;;19.77;6.65;;;;;;;17.39;100.00;100368.38;12189593;19;20122;-79
2022/10/28 08:14:56;;;;;;;16.10;6.97;;;;;;;17.43;100.00;100377.84;12211861;19;20030;-80
2022/10/28 08:18:57;;;;;;;20.70;7.80;;;;;;;17.56;100.00;100366.13;12211746;19;20014;-79
2022/10/28 08:23:00;;;;;;;19.05;7.00;;;;;;;17.74;100.00;100385.00;12189093;19;20010;-79
2022/10/28 08:27:07;;;;;;;16.42;6.82;;;;;;;17.96;100.00;100383.84;12211107;19;20049;-78
2022/10/28 08:31:11;;;;;;;12.48;6.97;;;;;;;18.07;100.00;100376.28;12189805;19;20641;-78
2022/10/28 08:35:13;;;;;;;15.77;6.32;;;;;;;18.05;100.00;100372.94;12211427;19;20567;-78
2022/10/28 08:39:15;;;;;;;13.47;6.20;;;;;;;18.13;100.00;100363.97;12209651;19;20003;-79
2022/10/28 08:43:44;;;;;;;11.00;6.30;;;;;;;18.25;100.00;100372.84;12188539;19;20010;-79
2022/10/28 08:48:04;;;;;;;18.58;6.13;;;;;;;18.40;100.00;100364.38;12210871;19;20010;-79
2022/10/28 08:52:27;;;;;;;15.63;6.22;;;;;;;18.62;100.00;100354.72;12209984;19;20018;-79
2022/10/28 08:56:34;;;;;;;9.27;5.63;;;;;;;18.86;100.00;100354.88;12207672;19;20739;-79
2022/10/28 09:00:39;;;;;;;15.43;6.10;;;;;;;19.04;100.00;100356.13;12209358;19;20006;-79
2022/10/28 09:04:42;;;;;;;13.88;5.80;;;;;;;19.28;100.00;100356.19;12185997;19;20006;-79
2022/10/28 09:08:48;;;;;;;15.30;7.07;;;;;;;19.37;100.00;100364.75;12208840;19;20034;-79
2022/10/28 09:13:15;;;;;;;16.75;7.07;;;;;;;19.54;100.00;100363.16;12220506;19;20457;-79
2022/10/28 09:17:20;;;;;;;9.98;5.72;;;;;;;19.65;100.00;100365.88;12199512;19;20011;-79
2022/10/28 09:21:31;;;;;;;12.60;4.95;;;;;;;19.58;100.00;100371.78;12221418;19;20345;-78
2022/10/28 09:25:47;;;;;;;15.60;5.50;;;;;;;19.53;100.00;100360.66;12199456;19;20014;-79
2022/10/28 09:30:21;;;;;;;17.52;5.63;;;;;;;19.41;100.00;100357.44;12223199;19;20729;-79
2022/10/28 09:34:38;;;;;;;11.23;5.18;;;;;;;19.35;100.00;100363.06;12225236;19;20011;-77
2022/10/28 09:38:41;;;;;;;11.77;4.55;;;;;;;19.43;100.00;100360.78;12242450;19;20108;-79
2022/10/28 09:42:59;;;;;;;10.93;4.60;;;;;;;19.48;100.00;100350.38;12220762;19;20014;-79
2022/10/28 09:47:04;;;;;;;15.45;5.38;;;;;;;19.72;100.00;100353.22;12208542;19;20015;-78
2022/10/28 09:51:21;;;;;;;13.30;6.25;;;;;;;19.93;100.00;100353.78;12271486;19;20357;-78
2022/10/28 09:55:23;;;;;;;11.50;5.25;;;;;;;20.20;100.00;100355.13;12225737;19;20006;-80
2022/10/28 09:59:25;;;;;;;17.20;5.93;;;;;;;20.29;100.00;100370.09;12223242;19;20029;-80
2022/10/28 10:03:27;;;;;;;11.48;5.43;;;;;;;20.37;100.00;100371.38;12223323;19;20270;-80
2022/10/28 10:07:42;;;;;;;15.70;5.37;;;;;;;20.49;100.00;100381.00;12201706;19;20014;-79
2022/10/28 10:11:47;;;;;;;10.75;4.82;;;;;;;20.66;100.00;100369.28;12219949;19;20014;-80
2022/10/28 10:15:53;;;;;;;12.18;5.38;;;;;;;20.81;100.00;100371.03;12221710;19;20030;-79
2022/10/28 10:20:05;;;;;;;12.52;4.25;;;;;;;20.98;99.97;100369.66;12200077;19;20011;-80
2022/10/28 10:24:25;;;;;;;9.90;3.50;;;;;;;21.10;94.32;100367.19;12218196;19;20002;-79
2022/10/28 10:28:31;;;;;;;11.95;4.43;;;;;;;21.24;95.03;100368.06;12196061;19;20015;-79
2022/10/28 10:32:33;;;;;;;15.35;4.53;;;;;;;21.32;90.80;100363.72;12217378;19;20006;-78
2022/10/28 10:36:34;;;;;;;9.98;4.40;;;;;;;21.48;91.74;100370.75;12219509;19;20011;-79
2022/10/28 10:40:47;;;;;;;14.07;4.10;;;;;;;21.64;90.75;100351.63;12197765;19;20416;-80
2022/10/28 10:44:58;;;;;;;10.63;4.70;;;;;;;21.77;90.87;100353.63;12219743;19;20018;-79
2022/10/28 10:49:15;;;;;;;11.75;4.57;;;;;;;21.92;90.04;100351.63;12216900;19;20259;-78
2022/10/28 10:53:26;;;;;;;13.45;4.55;;;;;;;22.01;88.32;100342.19;12195186;19;20006;-79
2022/10/28 10:57:29;;;;;;;10.60;3.70;;;;;;;22.16;86.27;100326.97;12214400;19;20074;-79
2022/10/28 11:01:35;;;;;;;12.45;4.15;;;;;;;22.26;83.89;100332.38;12194531;19;20034;-79
2022/10/28 11:05:37;;;;;;;10.82;3.53;;;;;;;22.45;83.37;100322.97;12214539;19;20010;-79
2022/10/28 11:09:41;;;;;;;9.40;3.22;;;;;;;22.49;82.17;100324.84;12216201;19;20042;-80
2022/10/28 11:13:44;;;;;;;11.97;3.40;;;;;;;22.55;80.05;100324.69;12193505;19;20023;-79
2022/10/28 11:17:58;;;;;;;13.80;3.63;;;;;;;22.80;75.34;100318.47;12212303;19;20006;-79
2022/10/28 11:22:28;;;;;;;7.18;3.15;;;;;;;22.97;72.91;100303.75;12215557;19;20011;-80
2022/10/28 11:26:36;;;;;;;9.38;3.28;;;;;;;23.31;69.66;100299.47;12194332;19;20031;-80
2022/10/28 11:30:52;;;;;;;11.70;2.90;;;;;;;23.63;66.13;100301.91;12211253;19;20386;-80
2022/10/28 11:35:24;;;;;;;10.73;2.53;;;;;;;23.99;65.59;100302.88;12191683;19;20454;-79
2022/10/28 11:40:05;;;;;;;8.65;2.20;;;;;;;24.46;60.98;100300.31;12215167;19;20011;-80
2022/10/28 11:44:22;;;;;;;6.13;2.80;;;;;;;25.18;59.05;100281.81;12194144;19;20007;-79
2022/10/28 11:48:57;;;;;;;13.75;2.83;;;;;;;25.75;55.14;100283.41;12213261;19;20010;-78
2022/10/28 11:53:20;;;;;;;9.98;2.95;;;;;;;26.25;53.68;100280.59;12189056;19;20006;-79
2022/10/28 11:57:37;;;;;;;8.23;2.45;;;;;;;26.61;50.91;100270.69;12208513;19;20014;-78
2022/10/28 12:02:06;;;;;;;8.65;2.65;;;;;;;26.69;48.93;100263.31;12194702;19;20030;-78
2022/10/28 12:06:27;;;;;;;10.38;2.45;;;;;;;26.77;47.84;100265.19;12209122;19;20010;-77
2022/10/28 12:10:50;;;;;;;8.30;2.60;;;;;;;27.02;47.47;100255.63;12188167;19;20413;-80
2022/10/28 12:15:14;;;;;;;10.45;2.78;;;;;;;26.99;46.52;100255.50;12207879;19;20013;-78
2022/10/28 12:19:21;;;;;;;11.98;3.42;;;;;;;26.87;46.12;100244.16;12188720;19;20010;-78
2022/10/28 12:23:25;;;;;;;9.05;2.95;;;;;;;26.69;45.25;100240.69;12212453;19;20018;-79
2022/10/28 12:27:32;;;;;;;9.43;2.60;;;;;;;26.61;45.43;100239.59;12210417;19;20014;-78
2022/10/28 12:31:41;;;;;;;6.68;2.58;;;;;;;26.53;46.49;100232.03;12186836;19;20014;-79
2022/10/28 12:36:11;;;;;;;9.90;3.50;;;;;;;26.44;46.28;100242.56;12207787;19;20112;-79
2022/10/28 12:40:42;;;;;;;6.28;2.42;;;;;;;26.82;45.15;100231.88;12190018;19;20006;-79
2022/10/28 12:44:44;;;;;;;6.70;2.45;;;;;;;27.30;44.30;100229.53;12213882;19;20018;-79
2022/10/28 12:48:56;;;;;;;9.02;3.38;;;;;;;27.20;43.34;100230.81;12220126;19;20014;-79
2022/10/28 12:53:02;;;;;;;6.50;3.13;;;;;;;26.78;43.60;100230.13;12197899;19;20475;-78
2022/10/28 12:57:11;;;;;;;11.00;2.67;;;;;;;26.57;45.07;100211.22;12217470;19;20435;-78
2022/10/28 13:01:17;;;;;;;8.27;2.35;;;;;;;26.33;45.83;100219.56;12198575;19;20007;-78
2022/10/28 13:05:23;;;;;;;11.68;2.25;;;;;;;26.05;45.41;100208.81;12216294;19;20511;-78
2022/10/28 13:09:52;;;;;;;6.78;2.60;;;;;;;25.63;45.13;100210.75;12215098;19;20361;-77
2022/10/28 13:14:12;;;;;;;10.38;2.97;;;;;;;25.41;45.79;100209.06;12192329;19;20022;-78
2022/10/28 13:18:43;;;;;;;10.02;2.35;;;;;;;25.27;46.49;100206.47;12214320;19;20602;-77
2022/10/28 13:23:10;;;;;;;11.57;2.92;;;;;;;25.10;47.66;100209.31;12191903;19;20034;-78
2022/10/28 13:27:13;;;;;;;6.85;2.30;;;;;;;25.03;48.40;100223.94;12214325;19;20015;-77
2022/10/28 13:31:15;;;;;;;9.25;2.75;;;;;;;24.90;48.65;100223.00;12191566;19;20003;-78
2022/10/28 13:35:23;;;;;;;8.60;2.78;;;;;;;24.84;49.16;100221.53;12215096;19;20017;-78
2022/10/28 13:39:40;;;;;;;13.15;3.30;;;;;;;24.90;48.79;100210.91;12212870;19;20047;-77
2022/10/28 13:43:57;;;;;;;9.40;2.67;;;;;;;25.00;49.52;100219.81;12191375;19;20408;-77
2022/10/28 13:48:36;;;;;;;9.95;3.00;;;;;;;25.03;49.78;100221.13;12213250;19;20014;-77
2022/10/28 13:52:43;;;;;;;10.20;2.28;;;;;;;24.77;49.03;100227.66;12190605;19;20026;-78
2022/10/28 13:56:48;;;;;;;13.00;3.65;;;;;;;24.62;50.28;100219.75;12212207;19;20006;-78
2022/10/28 14:00:50;;;;;;;10.05;2.53;;;;;;;24.48;50.62;100211.50;12212920;19;20002;-77
2022/10/28 14:05:04;;;;;;;9.63;2.60;;;;;;;24.44;51.74;100216.13;12190589;19;20429;-78
2022/10/28 14:09:20;;;;;;;9.30;3.00;;;;;;;24.40;51.98;100212.28;12210532;19;20121;-77
2022/10/28 14:13:22;;;;;;;13.05;2.65;;;;;;;24.33;51.66;100211.94;12187597;19;20014;-77
2022/10/28 14:17:29;;;;;;;7.60;2.63;;;;;;;24.38;51.57;100217.44;12211386;19;20031;-77
2022/10/28 14:21:45;;;;;;;10.23;2.72;;;;;;;24.34;51.80;100230.53;12209963;19;20021;-77
2022/10/28 14:25:53;;;;;;;9.05;2.88;;;;;;;24.18;51.82;100209.66;12190523;19;20046;-77
2022/10/28 14:29:55;;;;;;;14.55;3.13;;;;;;;24.01;52.13;100231.03;12213513;19;20030;-77
2022/10/28 14:33:56;;;;;;;7.80;2.20;;;;;;;23.80;52.96;100233.66;12211901;19;19998;-77
2022/10/28 14:38:18;;;;;;;12.15;3.20;;;;;;;23.70;53.45;100238.75;12189051;19;20335;-77
2022/10/28 14:42:50;;;;;;;10.65;3.03;;;;;;;23.62;53.84;100231.91;12209567;19;20062;-77
2022/10/28 14:47:07;;;;;;;6.85;2.65;;;;;;;23.54;54.78;100235.53;12194265;19;20003;-77
2022/10/28 14:51:14;;;;;;;11.23;3.17;;;;;;;23.42;55.29;100227.72;12217791;19;20026;-77
2022/10/28 14:55:23;;;;;;;7.47;3.00;;;;;;;23.31;55.81;100223.53;12200310;19;20029;-78
2022/10/28 14:59:36;;;;;;;12.93;2.75;;;;;;;23.21;56.80;100224.66;12230632;19;20014;-78
2022/10/28 15:03:38;;;;;;;12.80;3.35;;;;;;;23.10;56.70;100220.47;12228600;19;20042;-78
2022/10/28 15:07:41;;;;;;;10.10;3.30;;;;;;;23.00;57.62;100221.59;12204399;19;20021;-79
2022/10/28 15:12:06;;;;;;;8.18;3.22;;;;;;;22.95;57.88;100219.75;12221620;19;20010;-78
2022/10/28 15:16:24;;;;;;;9.60;3.10;;;;;;;22.86;58.31;100216.03;12232090;19;20076;-78
2022/10/28 15:20:30;;;;;;;7.25;2.80;;;;;;;22.81;58.54;100212.53;12242851;19;20010;-77
2022/10/28 15:24:32;;;;;;;9.20;2.60;;;;;;;22.71;59.12;100228.50;12231154;19;20006;-78
2022/10/28 15:28:35;;;;;;;13.82;3.30;;;;;;;22.54;59.59;100219.97;12191650;19;20035;-78
2022/10/28 15:32:37;;;;;;;7.63;3.45;;;;;;;22.39;60.44;100229.59;12206760;19;19998;-78
2022/10/28 15:36:39;;;;;;;12.20;3.92;;;;;;;22.24;60.91;100236.41;12210717;19;20026;-78
2022/10/28 15:40:41;;;;;;;11.93;2.90;;;;;;;22.11;62.01;100234.47;12190158;19;20034;-78
2022/10/28 15:44:43;;;;;;;8.00;2.90;;;;;;;21.97;63.01;100225.25;12208383;19;20352;-78
2022/10/28 15:48:50;;;;;;;5.85;3.08;;;;;;;21.95;62.96;100239.63;12208181;19;20006;-78
2022/10/28 15:53:13;;;;;;;11.85;2.85;;;;;;;21.92;62.86;100233.78;12185043;19;20014;-78
2022/10/28 15:57:25;;;;;;;;;;;;;;;21.84;63.40;100226.97;12208517;19;20526;-78
2022/10/28 16:01:34;;;;;;;9.15;2.70;;;;;;;21.78;63.68;100242.25;12185075;19;20381;-78
2022/10/28 16:05:36;;;;;;;7.25;2.50;;;;;;;21.69;64.27;100250.56;12186396;19;20006;-78
2022/10/28 16:09:46;;;;;;;15.18;3.55;;;;;;;21.64;64.24;100249.84;12200539;19;20054;-77
2022/10/28 16:13:48;;;;;;;8.82;2.90;;;;;;;21.52;64.69;100250.38;12169415;19;20015;-78
2022/10/28 16:17:50;;;;;;;8.00;3.00;;;;;;;21.36;65.33;100247.91;12205044;19;20011;-77
2022/10/28 16:21:52;;;;;;;12.88;3.15;;;;;;;21.22;66.42;100249.00;12208130;19;20046;-78
2022/10/28 16:25:54;;;;;;;10.98;3.08;;;;;;;21.08;66.54;100257.38;12195995;19;20019;-77
2022/10/28 16:29:55;;;;;;;11.88;3.38;;;;;;;20.98;66.98;100251.97;12210180;19;20007;-78
2022/10/28 16:33:58;;;;;;;13.45;3.42;;;;;;;20.86;67.69;100266.47;12207542;19;20011;-77
2022/10/28 16:38:00;;;;;;;10.45;3.65;;;;;;;20.75;68.10;100274.22;12187546;19;20003;-77
2022/10/28 16:42:02;;;;;;;13.48;2.85;;;;;;;20.66;68.47;100274.09;12208376;19;20002;-77
2022/10/28 16:46:03;;;;;;;10.48;3.05;;;;;;;20.60;69.16;100277.28;12209572;19;20009;-77
2022/10/28 16:50:05;;;;;;;12.02;3.10;;;;;;;20.55;69.42;100282.97;12187735;19;20014;-78
2022/10/28 16:54:07;;;;;;;11.52;3.80;;;;;;;20.54;69.87;100281.31;12208853;19;20349;-78
2022/10/28 16:58:09;;;;;;;11.73;3.20;;;;;;;20.52;70.05;100290.00;12214046;19;20014;-78
2022/10/28 17:02:18;;;;;;;7.35;2.78;;;;;;;20.56;70.10;100287.44;12230346;19;20014;-78
2022/10/28 17:06:20;;;;;;;9.00;2.83;;;;;;;20.65;69.86;100280.00;12212368;19;20019;-78
2022/10/28 17:10:23;;;;;;;12.40;3.13;;;;;;;20.77;69.60;100274.75;12180692;19;20377;-78
2022/10/28 17:14:24;;;;;;;;;;;;;;;20.94;69.41;100285.41;12205782;19;20011;-78
2022/10/28 17:18:26;;;;;;;10.82;4.30;;;;;;;20.97;68.94;100273.56;12205719;19;19926;-78
2022/10/28 17:22:28;;;;;;;7.20;3.20;;;;;;;20.94;69.18;100282.59;12183200;19;20013;-78
2022/10/28 17:26:29;;;;;;;9.50;2.75;;;;;;;20.91;69.67;100289.63;12204094;19;20019;-77
2022/10/28 17:30:31;;;;;;;10.50;3.20;;;;;;;20.91;69.86;100285.97;12212286;19;20013;-78
2022/10/28 17:34:34;;;;;;;12.50;3.25;;;;;;;20.90;69.68;100296.34;12194761;19;20361;-78
2022/10/28 17:38:35;;;;;;;;;;;;;;;20.84;70.49;100297.59;12218552;19;20015;-78
2022/10/28 17:42:37;;;;;;;9.68;3.20;;;;;;;20.84;70.44;100303.19;12221204;19;19914;-78
2022/10/28 17:46:39;;;;;;;12.50;3.22;;;;;;;20.83;70.66;100317.50;12197033;19;20011;-77
2022/10/28 17:50:42;;;;;;;14.07;3.10;;;;;;;20.79;70.84;100322.03;12218094;19;20014;-78
2022/10/28 17:54:44;;;;;;;10.60;3.47;;;;;;;20.76;71.68;100329.09;12219526;19;20030;-78
2022/10/28 17:58:46;;;;;;;13.53;3.43;;;;;;;20.73;72.06;100328.88;12194588;19;20567;-77
2022/10/28 18:02:48;;;;;;;10.07;3.47;;;;;;;20.68;72.07;100332.59;12220822;19;20014;-78
2022/10/28 18:06:50;;;;;;;9.03;3.17;;;;;;;20.60;72.56;100339.72;12217239;19;20046;-78
2022/10/28 18:10:56;;;;;;;13.23;3.90;;;;;;;20.49;73.16;100341.81;12193541;19;20015;-78
2022/10/28 18:14:58;;;;;;;13.95;4.00;;;;;;;20.39;74.02;100341.97;12216020;19;20003;-78
2022/10/28 18:19:03;;;;;;;8.90;3.72;;;;;;;20.29;74.60;100352.47;12215157;19;20023;-78
2022/10/28 18:23:05;;;;;;;12.93;3.30;;;;;;;20.20;75.08;100350.34;12195759;19;20007;-78
2022/10/28 18:27:08;;;;;;;12.55;3.88;;;;;;;20.19;74.99;100348.66;12217244;19;20003;-77
2022/10/28 18:31:11;;;;;;;;;;;;;;;20.17;75.52;100341.75;12218054;19;20035;-78
2022/10/28 18:35:13;;;;;;;8.13;3.92;;;;;;;20.18;75.28;100341.41;12195769;19;19995;-78
2022/10/28 18:39:14;;;;;;;9.20;3.40;;;;;;;20.14;75.69;100345.13;12216961;19;20029;-79
2022/10/28 18:43:16;;;;;;;13.65;4.78;;;;;;;20.13;75.99;100341.47;12196218;19;20018;-78